createdAt,value
2022-12-01T00:00:03.386Z,1002.35
2022-12-01T00:05:04.286Z,1002.46
2022-12-01T00:10:03.156Z,1002.46
2022-12-01T00:15:03.179Z,1002.48
2022-12-01T00:20:03.263Z,1002.44
2022-12-01T00:25:03.208Z,1002.28
2022-12-01T00:30:04.373Z,1002.23
2022-12-01T00:35:03.126Z,1002.2
2022-12-01T00:40:03.197Z,1002.16
2022-12-01T00:45:03.176Z,1002.12
2022-12-01T00:50:03.330Z,1002.15
2022-12-01T16:10:03.183Z,1004.84
2022-12-01T16:15:03.131Z,1004.76
2022-12-01T16:20:03.215Z,1004.73
2022-12-01T16:25:03.088Z,1004.77
2022-12-01T16:30:03.268Z,1004.77
2022-12-01T16:35:03.431Z,1004.67
2022-12-01T16:40:03.138Z,1004.62
2022-12-01T16:45:03.095Z,1004.68
2022-12-01T16:50:03.212Z,1004.86
2022-12-01T16:55:03.162Z,1004.95
2022-12-01T17:00:03.309Z,1005.14
2022-12-01T17:05:03.227Z,1005.21
2022-12-01T17:10:03.253Z,1005.26
2022-12-01T17:15:03.028Z,1005.44
2022-12-01T17:20:03.216Z,1005.2
2022-12-01T17:25:03.112Z,1005.32
2022-12-01T17:30:03.382Z,1005.07
2022-12-01T17:35:03.295Z,1004.92
2022-12-01T17:40:03.143Z,1005.12
2022-12-01T17:45:03.050Z,1005.27
2022-12-01T17:50:03.192Z,1005.46
2022-12-01T17:55:03.177Z,1005.22
2022-12-01T18:00:03.401Z,1004.96
2022-12-01T18:05:04.280Z,1004.85
2022-12-01T20:10:03.371Z,1002.43
2022-12-01T20:15:03.110Z,1002.42
2022-12-01T20:20:03.208Z,1002.4
2022-12-01T20:25:03.168Z,1002.38
2022-12-01T20:30:03.249Z,1002.42
2022-12-01T20:35:03.231Z,1002.59
2022-12-01T20:40:03.278Z,1002.66
2022-12-01T20:45:03.065Z,1002.76
2022-12-01T20:50:03.192Z,1002.81
2022-12-01T20:55:03.145Z,1002.92
2022-12-01T21:00:03.270Z,1003.05
2022-12-01T21:05:04.204Z,1003.23
2022-12-01T21:10:03.418Z,1003.4
2022-12-01T21:15:03.116Z,1003.48
2022-12-01T21:20:08.217Z,1003.54
2022-12-01T21:25:03.142Z,1003.59
2022-12-01T21:30:03.210Z,1003.61
2022-12-01T21:35:03.264Z,1003.74
2022-12-01T21:40:03.466Z,1003.81
2022-12-01T21:45:03.269Z,1004.03
2022-12-01T21:50:03.314Z,1004.21
2022-12-01T21:55:04.246Z,1004.27
2022-12-01T22:00:03.289Z,1004.29
2022-12-01T22:05:03.245Z,1004.45
2022-12-01T22:10:07.723Z,1004.53
2022-12-01T22:15:03.075Z,1004.63
2022-12-01T22:20:04.188Z,1004.66
2022-12-01T22:25:03.195Z,1004.72
2022-12-01T22:30:03.215Z,1004.65
2022-12-01T22:35:03.212Z,1004.66
2022-12-01T22:40:03.311Z,1004.77
2022-12-01T22:45:03.161Z,1004.95
2022-12-01T22:50:03.373Z,1005.0
2022-12-01T22:55:03.149Z,1004.91
2022-12-01T23:00:03.402Z,1005.02
2022-12-01T23:05:03.185Z,1005.25
2022-12-01T23:10:03.300Z,1005.34
2022-12-01T23:15:03.122Z,1005.4
2022-12-01T23:20:03.273Z,1005.38
2022-12-01T23:25:03.242Z,1005.36
2022-12-01T23:30:03.242Z,1005.32
2022-12-01T23:35:03.294Z,1005.29
2022-12-01T23:40:04.101Z,1005.38
2022-12-01T23:45:03.148Z,1005.46
2022-12-01T23:50:04.937Z,1005.52
2022-12-01T23:55:04.722Z,1005.68
